createdAt,value
2018-02-07T00:00:42.058Z,99.90
2018-02-07T00:03:09.924Z,99.90
2018-02-07T00:05:37.794Z,99.90
2018-02-07T00:08:05.659Z,99.90
2018-02-07T00:10:33.527Z,99.90
2018-02-07T00:13:01.395Z,99.90
2018-02-07T00:15:29.262Z,99.90
2018-02-07T00:17:57.129Z,99.90
2018-02-07T00:20:24.996Z,99.90
2018-02-07T00:22:52.966Z,99.90
2018-02-07T00:25:20.833Z,99.90
2018-02-07T00:27:48.702Z,99.90
2018-02-07T00:30:16.569Z,99.90
2018-02-07T00:32:44.435Z,99.90
2018-02-07T00:35:12.303Z,99.90
2018-02-07T00:37:40.170Z,99.90
2018-02-07T00:40:08.038Z,99.90
2018-02-07T00:42:35.903Z,99.90
2018-02-07T00:45:03.772Z,99.90
2018-02-07T00:47:31.638Z,99.90
2018-02-07T00:49:59.506Z,99.90
2018-02-07T00:52:27.374Z,99.90
2018-02-07T00:54:55.241Z,99.90
2018-02-07T00:57:23.110Z,99.90
2018-02-07T00:59:50.975Z,99.90
2018-02-07T01:02:18.846Z,99.90
2018-02-07T01:04:46.710Z,99.90
2018-02-07T01:07:14.578Z,99.90
2018-02-07T01:09:42.448Z,99.90
2018-02-07T01:12:10.315Z,99.90
2018-02-07T01:14:38.179Z,99.90
2018-02-07T01:17:06.048Z,99.90
2018-02-07T01:19:33.915Z,99.90
2018-02-07T01:22:01.781Z,99.90
2018-02-07T01:24:29.649Z,99.90
2018-02-07T01:26:57.517Z,99.90
2018-02-07T01:29:25.383Z,99.90
2018-02-07T01:31:53.251Z,99.90
2018-02-07T01:34:21.124Z,99.90
2018-02-07T01:36:48.985Z,99.90
2018-02-07T01:39:16.853Z,99.90
2018-02-07T01:41:44.720Z,99.90
2018-02-07T01:44:12.586Z,99.90
2018-02-07T01:46:40.455Z,99.90
2018-02-07T01:49:08.322Z,99.90
2018-02-07T01:51:37.009Z,99.90
2018-02-07T01:54:05.493Z,99.90
2018-02-07T01:56:33.460Z,99.90
2018-02-07T01:59:01.327Z,99.90
2018-02-07T02:01:29.195Z,99.90
2018-02-07T02:03:57.062Z,99.90
2018-02-07T02:06:24.929Z,99.90
2018-02-07T02:08:52.797Z,99.90
2018-02-07T02:11:20.666Z,99.90
2018-02-07T02:13:48.531Z,99.90
2018-02-07T02:16:16.406Z,99.90
2018-02-07T02:18:44.266Z,99.90
2018-02-07T02:21:12.133Z,99.90
2018-02-07T02:23:40.000Z,99.90
2018-02-07T02:26:07.867Z,99.90
2018-02-07T02:28:35.734Z,99.90
2018-02-07T02:31:03.603Z,99.90
2018-02-07T02:33:31.469Z,99.90
2018-02-07T02:36:11.318Z,99.90
2018-02-07T02:38:39.184Z,99.90
2018-02-07T02:41:07.052Z,99.90
2018-02-07T02:43:34.919Z,99.90
2018-02-07T02:46:02.788Z,99.90
2018-02-07T02:48:30.654Z,99.90
2018-02-07T02:50:58.521Z,99.90
2018-02-07T02:53:26.389Z,99.90
2018-02-07T02:55:54.256Z,99.90
2018-02-07T02:58:22.124Z,99.90
2018-02-07T03:00:50.093Z,99.90
2018-02-07T03:03:17.960Z,99.90
2018-02-07T03:05:46.750Z,99.90
2018-02-07T03:08:15.436Z,99.90
2018-02-07T03:10:43.405Z,99.90
2018-02-07T03:13:11.280Z,99.90
2018-02-07T03:15:40.061Z,99.90
2018-02-07T03:18:07.929Z,99.90
2018-02-07T03:20:35.796Z,99.90
2018-02-07T03:23:03.664Z,99.90
2018-02-07T03:25:31.549Z,99.90
2018-02-07T03:27:59.398Z,99.90
2018-02-07T03:30:27.266Z,99.90
2018-02-07T03:32:55.133Z,99.90
2018-02-07T03:35:23.001Z,99.90
2018-02-07T03:37:50.867Z,99.90
2018-02-07T03:40:18.736Z,99.90
2018-02-07T03:42:46.602Z,99.90
2018-02-07T03:45:14.469Z,99.90
2018-02-07T03:47:42.337Z,99.90
2018-02-07T03:50:10.204Z,99.90
2018-02-07T03:52:38.120Z,99.90
2018-02-07T03:55:06.758Z,99.90
2018-02-07T03:57:34.624Z,99.90
2018-02-07T04:00:03.315Z,99.90
2018-02-07T04:02:31.179Z,99.90
2018-02-07T04:04:59.047Z,99.90
2018-02-07T04:07:26.914Z,99.90
2018-02-07T04:09:54.710Z,99.90
2018-02-07T04:12:23.367Z,99.90
2018-02-07T04:14:51.233Z,99.90
2018-02-07T04:17:19.099Z,99.90
2018-02-07T04:19:46.966Z,99.90
2018-02-07T04:22:14.834Z,99.90
2018-02-07T04:24:42.701Z,99.90
2018-02-07T04:27:10.569Z,99.90
2018-02-07T04:29:38.436Z,99.90
2018-02-07T04:32:06.304Z,99.90
2018-02-07T04:34:34.171Z,99.90
2018-02-07T04:37:02.038Z,99.90
2018-02-07T04:39:29.905Z,99.90
2018-02-07T04:41:57.772Z,99.90
2018-02-07T04:44:25.577Z,99.90
2018-02-07T04:46:54.224Z,99.90
2018-02-07T04:49:22.093Z,99.90
2018-02-07T04:51:49.959Z,99.90
2018-02-07T04:54:17.826Z,99.90
2018-02-07T04:56:45.693Z,99.90
2018-02-07T04:59:13.562Z,99.90
2018-02-07T05:01:41.428Z,99.90
2018-02-07T05:04:09.294Z,99.90
2018-02-07T05:06:37.162Z,99.90
2018-02-07T05:09:05.031Z,99.90
2018-02-07T05:11:32.897Z,99.90
2018-02-07T05:14:00.764Z,99.90
2018-02-07T05:16:28.635Z,99.90
2018-02-07T05:18:56.499Z,99.90
2018-02-07T05:21:24.365Z,99.90
2018-02-07T05:23:52.336Z,99.90
2018-02-07T05:26:20.229Z,99.90
2018-02-07T05:28:48.070Z,99.90
2018-02-07T05:31:15.938Z,99.90
2018-02-07T05:33:43.805Z,99.90
2018-02-07T05:36:11.672Z,99.90
2018-02-07T05:38:39.539Z,99.90
2018-02-07T05:41:07.407Z,99.90
2018-02-07T05:43:35.274Z,99.90
2018-02-07T05:46:03.147Z,99.90
2018-02-07T05:48:31.008Z,99.90
2018-02-07T05:50:58.876Z,99.90
2018-02-07T05:53:26.746Z,99.90
2018-02-07T05:55:54.540Z,99.90
2018-02-07T05:58:22.375Z,99.90
2018-02-07T06:00:50.242Z,99.90
2018-02-07T06:03:18.110Z,99.90
2018-02-07T06:05:45.976Z,99.90
2018-02-07T06:08:13.844Z,99.90
2018-02-07T06:10:41.712Z,99.90
2018-02-07T06:13:09.579Z,99.90
2018-02-07T06:15:37.447Z,99.90
2018-02-07T06:18:05.313Z,99.90
2018-02-07T06:20:33.180Z,99.90
2018-02-07T06:23:01.051Z,99.90
2018-02-07T06:25:28.917Z,99.90
2018-02-07T06:27:56.782Z,99.90
2018-02-07T06:30:24.667Z,99.90
2018-02-07T06:32:52.517Z,99.90
2018-02-07T06:35:20.384Z,99.90
2018-02-07T06:37:48.252Z,99.90
2018-02-07T06:40:16.119Z,99.90
2018-02-07T06:42:43.986Z,99.90
2018-02-07T06:45:11.854Z,99.90
2018-02-07T06:47:39.720Z,99.90
2018-02-07T06:50:07.588Z,99.90
2018-02-07T06:52:35.461Z,99.90
2018-02-07T06:55:04.244Z,99.90
2018-02-07T06:57:32.111Z,99.90
2018-02-07T06:59:59.979Z,99.90
2018-02-07T07:02:27.845Z,99.90
2018-02-07T07:04:55.714Z,99.90
2018-02-07T07:07:23.582Z,99.90
2018-02-07T07:09:51.448Z,99.90
2018-02-07T07:12:19.315Z,99.90
2018-02-07T07:14:47.183Z,99.90
2018-02-07T07:17:15.050Z,99.90
2018-02-07T07:19:42.917Z,99.90
2018-02-07T07:22:10.784Z,99.90
2018-02-07T07:24:38.651Z,99.90
2018-02-07T07:27:06.519Z,99.90
2018-02-07T07:29:34.386Z,99.90
2018-02-07T07:32:02.254Z,99.90
2018-02-07T07:34:30.940Z,99.90
2018-02-07T07:36:58.808Z,99.90
2018-02-07T07:39:26.674Z,99.90
2018-02-07T07:41:54.541Z,99.90
2018-02-07T07:44:22.409Z,99.90
2018-02-07T07:46:50.276Z,99.90
2018-02-07T07:49:18.144Z,99.90
2018-02-07T07:51:46.011Z,99.90
2018-02-07T07:54:13.879Z,99.90
2018-02-07T07:56:41.745Z,99.90
2018-02-07T07:59:09.613Z,99.90
2018-02-07T08:01:37.480Z,99.90
2018-02-07T08:04:05.347Z,99.90
2018-02-07T08:06:33.214Z,99.90
2018-02-07T08:09:01.082Z,99.90
2018-02-07T08:11:28.950Z,99.90
2018-02-07T08:13:56.817Z,99.90
2018-02-07T08:16:24.687Z,99.90
2018-02-07T08:18:52.551Z,99.90
2018-02-07T08:21:20.419Z,99.90
2018-02-07T08:23:48.285Z,99.90
2018-02-07T08:26:16.154Z,99.90
2018-02-07T08:28:44.020Z,99.90
2018-02-07T08:31:11.888Z,99.90
2018-02-07T08:33:39.755Z,99.90
2018-02-07T08:36:07.621Z,99.90
2018-02-07T08:38:35.489Z,99.90
2018-02-07T08:41:03.357Z,97.20
2018-02-07T08:43:31.224Z,94.40
2018-02-07T08:45:59.091Z,92.00
2018-02-07T08:48:26.994Z,88.00
2018-02-07T08:50:55.645Z,66.40
2018-02-07T08:53:23.513Z,66.20
2018-02-07T08:55:51.381Z,68.00
2018-02-07T08:58:19.247Z,60.30
2018-02-07T09:00:47.114Z,55.20
2018-02-07T09:03:14.990Z,50.20
2018-02-07T09:05:42.850Z,45.10
2018-02-07T09:08:10.773Z,42.10
2018-02-07T09:10:39.403Z,39.50
2018-02-07T09:13:07.269Z,39.30
2018-02-07T09:15:35.137Z,37.50
2018-02-07T09:18:03.006Z,35.60
2018-02-07T09:20:30.875Z,36.10
2018-02-07T09:22:58.841Z,36.60
2018-02-07T09:25:26.708Z,34.50
2018-02-07T09:27:54.576Z,35.60
2018-02-07T09:30:22.443Z,33.10
2018-02-07T09:32:50.311Z,37.10
2018-02-07T09:35:18.178Z,35.30
2018-02-07T09:37:46.051Z,38.00
2018-02-07T09:40:13.910Z,37.30
2018-02-07T09:42:41.780Z,37.20
2018-02-07T09:45:09.647Z,36.10
2018-02-07T09:47:37.514Z,37.20
2018-02-07T09:50:05.382Z,36.30
2018-02-07T09:52:33.249Z,32.40
2018-02-07T09:55:01.116Z,34.30
2018-02-07T09:57:28.983Z,35.30
2018-02-07T09:59:56.851Z,32.70
2018-02-07T10:02:24.718Z,30.90
2018-02-07T10:04:52.586Z,33.50
2018-02-07T10:07:20.452Z,31.00
2018-02-07T10:09:48.320Z,34.20
2018-02-07T10:12:16.186Z,34.30
2018-02-07T10:14:44.055Z,33.90
2018-02-07T10:17:11.921Z,33.40
2018-02-07T10:19:39.789Z,33.70
2018-02-07T10:22:08.301Z,31.90
2018-02-07T10:24:36.031Z,31.90
2018-02-07T10:27:03.752Z,30.70
2018-02-07T10:29:31.477Z,31.30
2018-02-07T10:31:59.213Z,30.30
2018-02-07T10:34:26.937Z,29.60
2018-02-07T10:36:54.758Z,29.40
2018-02-07T10:39:22.625Z,28.90
2018-02-07T10:41:50.493Z,28.10
2018-02-07T10:44:18.218Z,29.50
2018-02-07T10:46:46.023Z,28.90
2018-02-07T10:49:13.890Z,29.00
2018-02-07T10:51:42.421Z,29.80
2018-02-07T10:54:11.058Z,29.90
2018-02-07T10:56:38.925Z,29.90
2018-02-07T10:59:06.793Z,37.20
2018-02-07T11:01:34.659Z,36.60
2018-02-07T11:04:02.527Z,38.80
2018-02-07T11:06:30.399Z,38.30
2018-02-07T11:08:58.261Z,38.40
2018-02-07T11:11:26.129Z,35.70
2018-02-07T11:13:54.000Z,35.60
2018-02-07T11:16:21.864Z,33.90
2018-02-07T11:18:49.731Z,33.00
2018-02-07T11:21:17.598Z,35.90
2018-02-07T11:23:45.465Z,39.30
2018-02-07T11:26:13.333Z,44.20
2018-02-07T11:28:41.200Z,46.20
2018-02-07T11:31:09.070Z,45.60
2018-02-07T11:33:36.934Z,42.40
2018-02-07T11:36:04.804Z,39.60
2018-02-07T11:38:32.670Z,42.20
2018-02-07T11:41:00.536Z,39.10
2018-02-07T11:43:28.406Z,36.30
2018-02-07T11:45:56.271Z,37.20
2018-02-07T11:48:23.985Z,35.30
2018-02-07T11:50:52.620Z,31.80
2018-02-07T11:53:20.487Z,31.70
2018-02-07T11:55:48.285Z,29.60
2018-02-07T11:58:16.005Z,31.50
2018-02-07T12:00:43.884Z,31.40
2018-02-07T12:03:11.751Z,30.40
2018-02-07T12:05:39.625Z,30.50
2018-02-07T12:08:07.485Z,29.70
2018-02-07T12:10:35.353Z,28.80
2018-02-07T12:13:03.221Z,28.90
2018-02-07T12:15:31.088Z,28.90
2018-02-07T12:17:58.958Z,29.10
2018-02-07T12:20:26.826Z,29.50
2018-02-07T12:22:54.792Z,29.30
2018-02-07T12:25:22.505Z,31.70
2018-02-07T12:27:51.000Z,34.70
2018-02-07T12:30:18.721Z,34.60
2018-02-07T12:32:46.437Z,34.40
2018-02-07T12:35:14.231Z,38.50
2018-02-07T12:37:42.098Z,41.30
2018-02-07T12:40:09.966Z,42.10
2018-02-07T12:42:37.681Z,45.10
2018-02-07T12:45:06.341Z,49.20
2018-02-07T12:47:35.002Z,50.40
2018-02-07T12:50:02.722Z,50.40
2018-02-07T12:52:30.443Z,53.30
2018-02-07T12:54:58.297Z,51.50
2018-02-07T12:57:26.014Z,53.30
2018-02-07T12:59:53.745Z,55.30
2018-02-07T13:02:21.462Z,59.50
2018-02-07T13:04:49.182Z,62.40
2018-02-07T13:07:16.902Z,63.70
2018-02-07T13:09:44.617Z,64.20
2018-02-07T13:12:13.098Z,67.40
2018-02-07T13:14:41.575Z,65.90
2018-02-07T13:17:09.290Z,65.80
2018-02-07T13:19:37.009Z,62.20
2018-02-07T13:22:05.555Z,55.30
2018-02-07T13:24:33.420Z,55.30
2018-02-07T13:27:01.142Z,53.10
2018-02-07T13:29:28.873Z,55.50
2018-02-07T13:31:56.591Z,53.30
2018-02-07T13:34:24.480Z,55.70
2018-02-07T13:36:52.207Z,56.80
2018-02-07T13:39:19.946Z,55.40
2018-02-07T13:41:48.437Z,54.30
2018-02-07T13:44:16.966Z,57.00
2018-02-07T13:46:44.691Z,57.10
2018-02-07T13:49:12.416Z,58.10
2018-02-07T13:51:40.166Z,57.40
2018-02-07T13:54:08.033Z,57.20
2018-02-07T13:56:35.758Z,57.20
2018-02-07T13:59:03.563Z,56.00
2018-02-07T14:01:31.289Z,52.80
2018-02-07T14:03:59.013Z,52.80
2018-02-07T14:06:26.770Z,54.90
2018-02-07T14:08:54.521Z,58.40
2018-02-07T14:11:22.387Z,63.70
2018-02-07T14:13:50.141Z,65.40
2018-02-07T14:16:17.869Z,65.50
2018-02-07T14:18:46.433Z,70.20
2018-02-07T14:21:14.934Z,70.90
2018-02-07T14:23:42.748Z,70.90
2018-02-07T14:26:10.473Z,69.40
2018-02-07T14:28:38.204Z,75.40
2018-02-07T14:31:05.935Z,74.90
2018-02-07T14:33:33.806Z,74.90
2018-02-07T14:36:01.674Z,75.50
2018-02-07T14:38:29.542Z,76.50
2018-02-07T14:40:57.409Z,76.30
2018-02-07T14:43:25.130Z,79.90
2018-02-07T14:45:52.939Z,80.30
2018-02-07T14:48:20.671Z,79.10
2018-02-07T14:50:48.430Z,81.30
2018-02-07T14:53:16.148Z,83.50
2018-02-07T14:55:43.874Z,85.50
2018-02-07T14:58:11.593Z,85.80
2018-02-07T15:00:40.245Z,87.80
2018-02-07T15:03:08.112Z,87.70
2018-02-07T15:05:35.837Z,89.20
2018-02-07T15:08:03.573Z,89.20
2018-02-07T15:10:31.408Z,90.30
2018-02-07T15:12:59.275Z,90.80
2018-02-07T15:15:27.142Z,90.90
2018-02-07T15:17:55.009Z,90.90
2018-02-07T15:20:22.879Z,90.40
2018-02-07T15:22:50.744Z,90.30
2018-02-07T15:25:18.611Z,90.30
2018-02-07T15:27:46.478Z,89.90
2018-02-07T15:30:14.345Z,89.90
2018-02-07T15:32:42.213Z,90.40
2018-02-07T15:35:10.079Z,91.30
2018-02-07T15:37:37.971Z,91.80
2018-02-07T15:40:05.697Z,92.30
2018-02-07T15:42:33.466Z,92.90
2018-02-07T15:45:01.194Z,93.60
2018-02-07T15:47:29.826Z,94.90
2018-02-07T15:49:57.710Z,94.90
2018-02-07T15:52:25.560Z,95.30
2018-02-07T15:54:53.429Z,95.60
2018-02-07T15:57:21.296Z,95.80
2018-02-07T15:59:49.166Z,96.50
2018-02-07T16:02:25.292Z,96.90
2018-02-07T16:04:53.941Z,96.90
2018-02-07T16:07:21.775Z,96.90
2018-02-07T16:09:49.643Z,96.90
2018-02-07T16:12:17.833Z,96.80
2018-02-07T16:14:47.243Z,96.70
2018-02-07T16:17:15.088Z,96.70
2018-02-07T16:19:45.359Z,96.70
2018-02-07T16:22:13.997Z,97.30
2018-02-07T16:24:41.713Z,97.30
2018-02-07T16:27:10.194Z,98.10
2018-02-07T16:29:38.683Z,98.10
2018-02-07T16:32:06.427Z,98.10
2018-02-07T16:34:35.075Z,98.20
2018-02-07T16:37:02.941Z,98.20
2018-02-07T16:39:30.708Z,98.80
2018-02-07T16:41:58.574Z,99.10
2018-02-07T16:44:26.444Z,99.80
2018-02-07T16:46:54.410Z,99.90
2018-02-07T16:49:22.279Z,99.90
2018-02-07T16:51:50.146Z,99.90
2018-02-07T16:54:17.874Z,99.90
2018-02-07T16:56:45.677Z,99.90
2018-02-07T16:59:13.543Z,99.90
2018-02-07T17:01:41.411Z,99.90
2018-02-07T17:04:09.277Z,99.90
2018-02-07T17:06:37.145Z,99.90
2018-02-07T17:09:05.014Z,99.90
2018-02-07T17:11:32.734Z,99.90
2018-02-07T17:14:00.449Z,99.90
2018-02-07T17:16:28.156Z,99.90
2018-02-07T17:18:56.071Z,99.90
2018-02-07T17:21:23.931Z,99.90
2018-02-07T17:23:51.814Z,99.90
2018-02-07T17:26:19.673Z,99.90
2018-02-07T17:28:47.386Z,99.90
2018-02-07T17:31:16.022Z,99.90
2018-02-07T17:33:43.890Z,99.90
2018-02-07T17:36:11.602Z,99.90
2018-02-07T17:38:40.239Z,99.90
2018-02-07T17:41:08.106Z,99.90
2018-02-07T17:43:35.857Z,99.90
2018-02-07T17:46:03.609Z,99.90
2018-02-07T17:48:31.322Z,99.90
2018-02-07T17:50:59.165Z,99.90
2018-02-07T17:53:27.034Z,99.90
2018-02-07T17:55:54.901Z,99.90
2018-02-07T17:58:22.767Z,99.90
2018-02-07T18:00:50.533Z,99.90
2018-02-07T18:03:18.243Z,99.90
2018-02-07T18:05:46.721Z,99.90
2018-02-07T18:08:15.201Z,99.90
2018-02-07T18:10:43.844Z,99.90
2018-02-07T18:13:11.720Z,99.90
2018-02-07T18:15:39.579Z,99.90
2018-02-07T18:18:07.285Z,99.90
2018-02-07T18:20:36.440Z,99.90
2018-02-07T18:23:04.308Z,99.90
2018-02-07T18:25:32.175Z,99.90
2018-02-07T18:28:00.044Z,99.90
2018-02-07T18:30:27.959Z,99.90
2018-02-07T18:32:56.595Z,99.90
2018-02-07T18:35:24.396Z,99.90
2018-02-07T18:37:52.874Z,99.90
2018-02-07T18:40:20.598Z,99.90
2018-02-07T18:42:48.319Z,99.90
2018-02-07T18:45:16.803Z,99.90
2018-02-07T18:47:45.294Z,99.90
2018-02-07T18:50:13.101Z,99.90
2018-02-07T18:52:40.968Z,99.90
2018-02-07T18:55:08.836Z,99.90
2018-02-07T18:57:36.707Z,99.90
2018-02-07T19:00:04.672Z,99.90
2018-02-07T19:02:32.540Z,99.90
2018-02-07T19:05:00.304Z,99.90
2018-02-07T19:07:28.196Z,99.90
2018-02-07T19:09:56.039Z,99.90
2018-02-07T19:12:23.757Z,99.90
2018-02-07T19:14:51.471Z,99.90
2018-02-07T19:17:19.340Z,99.90
2018-02-07T19:19:47.143Z,99.90
2018-02-07T19:22:15.612Z,99.90
2018-02-07T19:24:43.550Z,99.90
2018-02-07T19:27:11.417Z,99.90
2018-02-07T19:29:39.285Z,99.90
2018-02-07T19:32:07.152Z,99.90
2018-02-07T19:34:35.021Z,99.90
2018-02-07T19:37:02.887Z,99.90
2018-02-07T19:39:30.757Z,99.90
2018-02-07T19:41:58.465Z,99.90
2018-02-07T19:44:27.104Z,99.90
2018-02-07T19:46:54.971Z,99.90
2018-02-07T19:49:22.836Z,99.90
2018-02-07T19:51:50.705Z,99.90
2018-02-07T19:54:19.392Z,99.90
2018-02-07T19:56:47.259Z,99.90
2018-02-07T19:59:14.980Z,99.90
2018-02-07T20:01:42.790Z,99.90
2018-02-07T20:04:10.591Z,99.90
2018-02-07T20:06:39.073Z,99.90
2018-02-07T20:09:08.813Z,99.90
2018-02-07T20:11:38.968Z,99.90
2018-02-07T20:14:08.732Z,99.90
2018-02-07T20:16:36.649Z,99.90
2018-02-07T20:19:04.618Z,99.90
2018-02-07T20:21:32.488Z,99.90
2018-02-07T20:24:00.353Z,99.90
2018-02-07T20:26:28.221Z,99.90
2018-02-07T20:28:56.089Z,99.90
2018-02-07T20:31:23.955Z,99.90
2018-02-07T20:33:51.823Z,99.90
2018-02-07T20:36:19.690Z,99.90
2018-02-07T20:38:47.559Z,99.90
2018-02-07T20:41:15.630Z,99.90
2018-02-07T20:43:43.497Z,99.90
2018-02-07T20:46:12.453Z,99.90
2018-02-07T20:48:40.358Z,99.90
2018-02-07T20:51:08.225Z,99.90
2018-02-07T20:53:36.092Z,99.90
2018-02-07T20:56:03.959Z,99.90
2018-02-07T20:58:33.265Z,99.90
2018-02-07T21:01:01.158Z,99.90
2018-02-07T21:03:28.998Z,99.90
2018-02-07T21:05:56.965Z,99.90
2018-02-07T21:08:25.348Z,99.90
2018-02-07T21:10:53.216Z,99.90
2018-02-07T21:13:23.184Z,99.90
2018-02-07T21:15:53.545Z,99.90
2018-02-07T21:18:21.422Z,99.90
2018-02-07T21:20:49.292Z,99.90
2018-02-07T21:23:17.159Z,99.90
2018-02-07T21:25:45.025Z,99.90
2018-02-07T21:28:12.893Z,99.90
2018-02-07T21:30:40.762Z,99.90
2018-02-07T21:33:08.627Z,99.90
2018-02-07T21:35:36.493Z,99.90
2018-02-07T21:38:04.362Z,99.90
2018-02-07T21:40:32.230Z,99.90
2018-02-07T21:43:00.096Z,99.90
2018-02-07T21:45:27.963Z,99.90
2018-02-07T21:47:55.831Z,99.90
2018-02-07T21:50:25.531Z,99.90
2018-02-07T21:52:55.844Z,99.90
2018-02-07T21:55:25.982Z,99.90
2018-02-07T21:57:53.961Z,99.90
2018-02-07T22:00:21.826Z,99.90
2018-02-07T22:02:50.949Z,99.90
2018-02-07T22:05:19.709Z,99.90
2018-02-07T22:07:47.575Z,99.90
2018-02-07T22:10:15.442Z,99.90
2018-02-07T22:12:43.310Z,99.90
2018-02-07T22:15:11.177Z,99.90
2018-02-07T22:17:39.045Z,99.90
2018-02-07T22:20:06.912Z,99.90
2018-02-07T22:22:34.781Z,99.90
2018-02-07T22:25:02.646Z,99.90
2018-02-07T22:27:30.512Z,99.90
2018-02-07T22:29:58.381Z,99.90
2018-02-07T22:32:26.350Z,99.90
2018-02-07T22:34:54.218Z,99.90
2018-02-07T22:37:22.085Z,99.90
2018-02-07T22:39:49.953Z,99.90
2018-02-07T22:42:17.824Z,99.90
2018-02-07T22:44:45.688Z,99.90
2018-02-07T22:47:13.657Z,99.90
2018-02-07T22:49:41.524Z,99.90
2018-02-07T22:52:09.398Z,99.90
2018-02-07T22:54:37.259Z,99.90
2018-02-07T22:57:05.066Z,99.90
2018-02-07T22:59:33.811Z,99.90
2018-02-07T23:02:01.680Z,99.90
2018-02-07T23:04:29.547Z,99.90
2018-02-07T23:06:57.414Z,99.90
2018-02-07T23:09:25.281Z,99.90
2018-02-07T23:11:53.148Z,99.90
2018-02-07T23:14:21.017Z,99.90
2018-02-07T23:16:48.887Z,99.90
2018-02-07T23:19:16.751Z,99.90
2018-02-07T23:21:44.626Z,99.90
2018-02-07T23:24:13.149Z,99.90
2018-02-07T23:26:41.792Z,99.90
2018-02-07T23:29:09.654Z,99.90
2018-02-07T23:31:37.521Z,99.90
2018-02-07T23:34:05.396Z,99.90
2018-02-07T23:36:33.255Z,99.90
2018-02-07T23:39:01.126Z,99.90
2018-02-07T23:41:29.000Z,99.90
2018-02-07T23:43:56.861Z,99.90
2018-02-07T23:46:24.728Z,99.90
2018-02-07T23:48:52.595Z,99.90
2018-02-07T23:51:20.393Z,99.90
2018-02-07T23:53:49.046Z,99.90
2018-02-07T23:56:16.914Z,99.90
2018-02-07T23:58:44.780Z,99.90
